createdAt,value
2022-12-15T00:02:44.166Z,14.7
2022-12-15T00:08:22.520Z,14.7
2022-12-15T00:13:57.505Z,14.7
2022-12-15T00:19:32.399Z,14.7
2022-12-15T00:25:07.436Z,14.7
2022-12-15T00:30:44.043Z,14.7
2022-12-15T00:36:25.344Z,14.7
2022-12-15T00:42:00.836Z,14.7
2022-12-15T00:47:58.461Z,14.8
2022-12-15T00:53:31.391Z,14.7
2022-12-15T00:59:08.721Z,14.6
2022-12-15T01:04:44.821Z,14.7
2022-12-15T01:10:20.761Z,14.7
2022-12-15T01:15:55.635Z,14.7
2022-12-15T01:21:31.635Z,14.7
2022-12-15T01:27:06.913Z,14.6
2022-12-15T01:32:46.129Z,14.6
2022-12-15T01:38:21.634Z,14.5
2022-12-15T01:43:56.655Z,14.4
2022-12-15T01:49:53.778Z,14.4
2022-12-15T01:55:27.681Z,14.4
2022-12-15T02:01:02.886Z,14.3
2022-12-15T02:06:39.871Z,14.2
2022-12-15T02:12:14.709Z,14.2
2022-12-15T02:17:49.853Z,14.3
2022-12-15T02:23:24.849Z,14.3
2022-12-15T02:29:00.410Z,14.2
2022-12-15T02:34:35.859Z,14.2
2022-12-15T02:40:11.967Z,14.1
2022-12-15T02:45:47.585Z,14.1
2022-12-15T02:51:24.555Z,14
2022-12-15T02:56:59.460Z,13.9
2022-12-15T03:02:34.969Z,13.9
2022-12-15T03:08:11.670Z,13.8
2022-12-15T03:13:46.910Z,13.8
2022-12-15T03:19:25.663Z,13.7
2022-12-15T03:25:00.719Z,13.7
2022-12-15T03:30:36.666Z,13.7
2022-12-15T03:36:12.454Z,13.6
2022-12-15T03:41:47.291Z,13.6
2022-12-15T03:47:44.202Z,13.6
2022-12-15T03:53:17.801Z,13.6
2022-12-15T03:58:53.187Z,13.5
2022-12-15T04:04:28.014Z,13.5
2022-12-15T04:10:03.484Z,13.5
2022-12-15T04:15:40.136Z,13.5
2022-12-15T04:21:15.351Z,13.5
2022-12-15T04:26:50.904Z,13.5
2022-12-15T04:32:27.859Z,13.4
2022-12-15T04:38:02.924Z,13.4
2022-12-15T04:43:37.946Z,13.4
2022-12-15T04:49:34.705Z,13.3
2022-12-15T04:55:07.699Z,13.3
2022-12-15T05:00:42.570Z,13.3
2022-12-15T05:06:17.623Z,13.3
2022-12-15T05:11:52.926Z,13.3
2022-12-15T05:17:29.941Z,13.3
2022-12-15T05:23:07.820Z,13.3
2022-12-15T05:28:43.004Z,13.2
2022-12-15T05:34:20.248Z,13.2
2022-12-15T05:39:55.725Z,13.2
2022-12-15T05:45:31.249Z,13.2
2022-12-15T05:51:07.616Z,13.1
2022-12-15T05:56:42.477Z,13.1
2022-12-15T06:02:17.810Z,13.1
2022-12-15T06:07:53.763Z,13
2022-12-15T06:13:29.134Z,13
2022-12-15T06:19:09.423Z,13
2022-12-15T06:24:44.825Z,13
2022-12-15T06:30:20.792Z,13
2022-12-15T06:35:57.056Z,13
2022-12-15T06:41:53.244Z,13
2022-12-15T06:47:49.954Z,13
2022-12-15T06:53:23.782Z,13
2022-12-15T06:58:59.308Z,13
2022-12-15T07:04:34.848Z,12.5
2022-12-15T07:10:09.842Z,11.3
2022-12-15T07:15:45.226Z,11
2022-12-15T07:21:21.064Z,11
2022-12-15T07:26:56.447Z,10.7
2022-12-15T07:32:31.903Z,10.4
2022-12-15T07:38:06.726Z,10.3
2022-12-15T07:43:42.206Z,10.3
2022-12-15T07:49:16.972Z,10.1
2022-12-15T07:54:53.071Z,10.2
2022-12-15T08:00:29.611Z,10.3
2022-12-15T08:06:04.948Z,10.3
2022-12-15T08:11:39.800Z,10.2
2022-12-15T08:17:15.162Z,10.7
2022-12-15T08:22:51.541Z,10.6
2022-12-15T08:28:27.666Z,10.7
2022-12-15T08:34:02.886Z,10.7
2022-12-15T08:39:38.190Z,10.7
2022-12-15T08:45:16.171Z,10.8
2022-12-15T08:50:51.461Z,10.9
2022-12-15T08:56:29.220Z,11.1
2022-12-15T09:02:37.172Z,11
2022-12-15T09:08:12.818Z,11.3
2022-12-15T09:13:48.955Z,11.3
2022-12-15T09:19:24.097Z,11.5
2022-12-15T09:24:59.624Z,11.7
2022-12-15T09:30:35.212Z,11.8
2022-12-15T09:36:11.714Z,12
2022-12-15T09:41:48.090Z,12
2022-12-15T09:47:45.066Z,12.2
2022-12-15T09:53:52.799Z,12.3
2022-12-15T09:59:34.759Z,12.4
2022-12-15T10:05:10.700Z,12.6
2022-12-15T10:10:46.151Z,12.7
2022-12-15T10:16:24.582Z,13.6
2022-12-15T10:22:03.563Z,14.3
2022-12-15T10:27:38.831Z,14.7
2022-12-15T10:33:19.066Z,15.1
2022-12-15T10:38:57.533Z,15
2022-12-15T10:44:36.877Z,14.8
2022-12-15T10:50:12.370Z,15
2022-12-15T10:55:49.739Z,15
2022-12-15T11:01:25.609Z,15.3
2022-12-15T11:07:03.015Z,15.5
2022-12-15T11:12:38.515Z,15.5
2022-12-15T11:18:14.550Z,15.4
2022-12-15T11:23:53.754Z,15.7
2022-12-15T11:30:15.475Z,16
2022-12-15T11:35:50.760Z,16.3
2022-12-15T11:41:36.697Z,16.4
2022-12-15T11:47:34.243Z,16.6
2022-12-15T11:53:07.442Z,16.8
2022-12-15T11:58:42.525Z,17
2022-12-15T12:04:30.640Z,17.4
2022-12-15T12:10:05.505Z,18.1
2022-12-15T12:15:40.697Z,17.7
2022-12-15T12:21:17.907Z,17.8
2022-12-15T12:26:57.370Z,19.4
2022-12-15T12:32:33.320Z,20
2022-12-15T12:38:08.598Z,18.8
2022-12-15T12:43:43.944Z,18.3
2022-12-15T12:49:38.728Z,18.3
2022-12-15T12:55:34.700Z,19.3
2022-12-15T13:01:29.081Z,20.7
2022-12-15T13:07:26.734Z,21.5
2022-12-15T13:13:11.564Z,21.1
2022-12-15T13:18:47.145Z,19.9
2022-12-15T13:24:40.638Z,19.8
2022-12-15T13:30:16.343Z,20
2022-12-15T13:35:56.499Z,18.6
2022-12-15T13:41:31.568Z,18.6
2022-12-15T13:48:10.720Z,17.7
2022-12-15T13:53:56.198Z,17.1
2022-12-15T14:00:28.302Z,17.7
2022-12-15T14:06:04.463Z,18.3
2022-12-15T14:13:30.334Z,19.3
2022-12-15T14:21:28.621Z,18.6
2022-12-15T14:27:04.457Z,17.7
2022-12-15T14:32:42.847Z,17.1
2022-12-15T14:38:19.822Z,16.9
2022-12-15T14:44:32.289Z,16.7
2022-12-15T15:09:01.795Z,16.1
2022-12-15T15:14:37.220Z,16
2022-12-15T15:20:11.992Z,15.8
2022-12-15T15:25:47.418Z,15.6
2022-12-15T15:31:41.171Z,15.3
2022-12-15T15:37:59.359Z,15.1
2022-12-15T15:43:55.610Z,14.9
2022-12-15T15:49:49.086Z,14.8
2022-12-15T15:55:28.750Z,14.6
2022-12-15T16:01:18.322Z,14.4
2022-12-15T16:06:55.686Z,14.2
2022-12-15T16:12:30.879Z,14
2022-12-15T16:18:05.958Z,13.8
2022-12-15T16:24:04.643Z,13.8
2022-12-15T16:31:25.412Z,13.6
2022-12-15T16:37:16.397Z,13.5
2022-12-15T16:42:52.457Z,13.4
2022-12-15T16:48:57.628Z,13.4
2022-12-15T16:54:32.181Z,13.5
2022-12-15T17:00:07.138Z,14.3
2022-12-15T17:05:42.189Z,14.5
2022-12-15T17:11:17.355Z,14.6
2022-12-15T17:16:52.177Z,14.6
2022-12-15T17:22:30.403Z,14.7
2022-12-15T17:28:06.487Z,14.7
2022-12-15T17:33:42.267Z,14.8
2022-12-15T17:39:17.601Z,14.8
2022-12-15T17:44:53.019Z,14.8
2022-12-15T17:50:29.091Z,14.8
2022-12-15T17:56:04.401Z,14.8
2022-12-15T18:01:39.768Z,14.8
2022-12-15T18:07:17.002Z,14.7
2022-12-15T18:13:21.703Z,14.7
2022-12-15T18:19:10.392Z,14.6
2022-12-15T18:24:45.461Z,14.6
2022-12-15T18:30:41.474Z,14.6
2022-12-15T18:36:34.847Z,14.5
2022-12-15T18:42:15.968Z,14.5
2022-12-15T18:47:52.448Z,14.5
2022-12-15T18:53:30.529Z,14.5
2022-12-15T18:59:10.168Z,14.6
2022-12-15T19:04:46.065Z,14.6
2022-12-15T19:10:21.107Z,14.6
2022-12-15T19:15:56.115Z,14.6
2022-12-15T19:21:53.363Z,14.5
2022-12-15T19:27:28.814Z,14.5
2022-12-15T19:33:03.848Z,14.5
2022-12-15T19:38:39.012Z,14.5
2022-12-15T19:44:16.043Z,14.5
2022-12-15T19:49:51.259Z,14.5
2022-12-15T19:55:30.320Z,14.4
2022-12-15T20:01:07.916Z,14.4
2022-12-15T20:06:43.786Z,14.4
2022-12-15T20:12:20.967Z,14.4
2022-12-15T20:18:02.358Z,14.3
2022-12-15T20:23:37.842Z,14.3
2022-12-15T20:29:12.911Z,14.2
2022-12-15T20:34:58.238Z,14.3
2022-12-15T20:40:32.977Z,14.2
2022-12-15T20:46:08.398Z,14.2
2022-12-15T20:51:44.213Z,14.2
2022-12-15T20:57:19.828Z,14.2
2022-12-15T21:02:54.603Z,14.1
2022-12-15T21:08:33.855Z,14.1
2022-12-15T21:14:09.061Z,14.1
2022-12-15T21:19:44.729Z,14.1
2022-12-15T21:25:21.084Z,14.1
2022-12-15T21:30:56.633Z,14
2022-12-15T21:36:33.209Z,14
2022-12-15T21:42:08.851Z,14
2022-12-15T21:47:43.927Z,14
2022-12-15T21:53:18.983Z,14
2022-12-15T21:58:54.796Z,14
2022-12-15T22:04:29.994Z,13.9
2022-12-15T22:10:04.780Z,13.9
2022-12-15T22:15:40.140Z,13.8
2022-12-15T22:21:17.322Z,13.8
2022-12-15T22:26:52.523Z,13.7
2022-12-15T22:32:29.394Z,13.7
2022-12-15T22:38:04.258Z,13.7
2022-12-15T22:43:39.590Z,13.7
2022-12-15T22:49:36.796Z,13.6
2022-12-15T22:55:09.263Z,13.6
2022-12-15T23:00:56.091Z,13.6
2022-12-15T23:06:31.431Z,13.5
2022-12-15T23:12:06.166Z,13.5
2022-12-15T23:17:42.424Z,13.5
2022-12-15T23:23:18.610Z,13.5
2022-12-15T23:28:55.271Z,13.5
2022-12-15T23:34:30.665Z,13.5
2022-12-15T23:40:06.030Z,13.5
2022-12-15T23:45:41.087Z,13.5
2022-12-15T23:51:16.959Z,13.4
2022-12-15T23:56:53.422Z,13.4
